sensor_id;sensor_type;location;lat;lon;timestamp;P1;durP1;ratioP1;P2;durP2;ratioP2
67049;SDS011;53955;52.442;13.284;2022-12-13T00:01:50;15.83;;;8.40;;
67049;SDS011;53955;52.442;13.284;2022-12-13T00:04:17;15.60;;;8.63;;
67049;SDS011;53955;52.442;13.284;2022-12-13T00:06:45;14.83;;;8.27;;
67049;SDS011;53955;52.442;13.284;2022-12-13T00:09:13;18.97;;;9.63;;
67049;SDS011;53955;52.442;13.284;2022-12-13T00:11:42;14.03;;;8.27;;
67049;SDS011;53955;52.442;13.284;2022-12-13T00:14:09;19.43;;;8.83;;
67049;SDS011;53955;52.442;13.284;2022-12-13T00:16:38;16.27;;;8.83;;
67049;SDS011;53955;52.442;13.284;2022-12-13T00:19:05;17.70;;;9.27;;
67049;SDS011;53955;52.442;13.284;2022-12-13T00:21:32;18.10;;;9.70;;
67049;SDS011;53955;52.442;13.284;2022-12-13T00:23:59;16.90;;;10.17;;
67049;SDS011;53955;52.442;13.284;2022-12-13T00:26:27;21.90;;;9.83;;
67049;SDS011;53955;52.442;13.284;2022-12-13T00:28:56;22.03;;;10.40;;
67049;SDS011;53955;52.442;13.284;2022-12-13T00:31:24;21.23;;;10.07;;
67049;SDS011;53955;52.442;13.284;2022-12-13T00:33:51;21.97;;;11.43;;
67049;SDS011;53955;52.442;13.284;2022-12-13T00:36:18;20.73;;;10.10;;
67049;SDS011;53955;52.442;13.284;2022-12-13T00:38:45;21.63;;;10.70;;
67049;SDS011;53955;52.442;13.284;2022-12-13T00:41:24;21.23;;;10.47;;
67049;SDS011;53955;52.442;13.284;2022-12-13T00:43:52;19.07;;;10.47;;
67049;SDS011;53955;52.442;13.284;2022-12-13T00:46:20;21.50;;;10.73;;
67049;SDS011;53955;52.442;13.284;2022-12-13T00:48:48;20.63;;;10.47;;
67049;SDS011;53955;52.442;13.284;2022-12-13T00:51:15;23.87;;;12.03;;
67049;SDS011;53955;52.442;13.284;2022-12-13T00:53:42;20.80;;;10.80;;
67049;SDS011;53955;52.442;13.284;2022-12-13T00:56:10;24.07;;;10.97;;
67049;SDS011;53955;52.442;13.284;2022-12-13T00:58:37;23.50;;;11.53;;
67049;SDS011;53955;52.442;13.284;2022-12-13T01:01:05;22.03;;;12.13;;
67049;SDS011;53955;52.442;13.284;2022-12-13T01:03:34;21.63;;;10.47;;
67049;SDS011;53955;52.442;13.284;2022-12-13T01:06:06;23.80;;;11.13;;
67049;SDS011;53955;52.442;13.284;2022-12-13T01:08:34;22.67;;;10.50;;
67049;SDS011;53955;52.442;13.284;2022-12-13T01:11:01;23.03;;;11.77;;
67049;SDS011;53955;52.442;13.284;2022-12-13T01:13:28;22.60;;;10.53;;
67049;SDS011;53955;52.442;13.284;2022-12-13T01:15:55;24.53;;;12.43;;
67049;SDS011;53955;52.442;13.284;2022-12-13T01:18:21;22.87;;;10.67;;
67049;SDS011;53955;52.442;13.284;2022-12-13T01:20:57;22.80;;;11.53;;
67049;SDS011;53955;52.442;13.284;2022-12-13T01:23:24;25.17;;;11.43;;
67049;SDS011;53955;52.442;13.284;2022-12-13T01:25:51;23.67;;;11.97;;
67049;SDS011;53955;52.442;13.284;2022-12-13T01:28:18;20.40;;;10.70;;
67049;SDS011;53955;52.442;13.284;2022-12-13T01:30:51;23.40;;;11.43;;
67049;SDS011;53955;52.442;13.284;2022-12-13T01:33:19;24.17;;;11.17;;
67049;SDS011;53955;52.442;13.284;2022-12-13T01:35:45;20.43;;;10.13;;
67049;SDS011;53955;52.442;13.284;2022-12-13T01:38:13;16.97;;;10.20;;
67049;SDS011;53955;52.442;13.284;2022-12-13T01:40:41;21.50;;;10.27;;
67049;SDS011;53955;52.442;13.284;2022-12-13T01:43:10;23.30;;;11.03;;
67049;SDS011;53955;52.442;13.284;2022-12-13T01:45:38;21.77;;;10.03;;
67049;SDS011;53955;52.442;13.284;2022-12-13T01:48:05;20.20;;;10.87;;
67049;SDS011;53955;52.442;13.284;2022-12-13T01:50:36;20.30;;;10.07;;
67049;SDS011;53955;52.442;13.284;2022-12-13T01:53:08;19.13;;;9.03;;
67049;SDS011;53955;52.442;13.284;2022-12-13T01:55:39;15.83;;;8.50;;
67049;SDS011;53955;52.442;13.284;2022-12-13T01:58:11;20.73;;;9.87;;
67049;SDS011;53955;52.442;13.284;2022-12-13T02:00:39;20.10;;;9.63;;
67049;SDS011;53955;52.442;13.284;2022-12-13T02:03:06;18.83;;;9.53;;
67049;SDS011;53955;52.442;13.284;2022-12-13T02:05:34;20.20;;;10.07;;
67049;SDS011;53955;52.442;13.284;2022-12-13T02:08:05;19.13;;;9.27;;
67049;SDS011;53955;52.442;13.284;2022-12-13T02:10:34;21.10;;;10.07;;
67049;SDS011;53955;52.442;13.284;2022-12-13T02:13:03;21.53;;;10.27;;
67049;SDS011;53955;52.442;13.284;2022-12-13T02:15:32;20.27;;;9.33;;
67049;SDS011;53955;52.442;13.284;2022-12-13T02:18:12;20.23;;;10.50;;
67049;SDS011;53955;52.442;13.284;2022-12-13T02:20:49;19.90;;;10.40;;
67049;SDS011;53955;52.442;13.284;2022-12-13T02:23:58;20.60;;;9.87;;
67049;SDS011;53955;52.442;13.284;2022-12-13T02:26:56;25.90;;;10.67;;
67049;SDS011;53955;52.442;13.284;2022-12-13T02:32:44;20.33;;;10.47;;
67049;SDS011;53955;52.442;13.284;2022-12-13T02:35:27;21.23;;;10.17;;
67049;SDS011;53955;52.442;13.284;2022-12-13T02:38:00;22.00;;;11.07;;
67049;SDS011;53955;52.442;13.284;2022-12-13T02:40:35;19.80;;;10.57;;
67049;SDS011;53955;52.442;13.284;2022-12-13T02:43:07;21.97;;;11.17;;
67049;SDS011;53955;52.442;13.284;2022-12-13T02:45:40;21.77;;;10.63;;
67049;SDS011;53955;52.442;13.284;2022-12-13T02:48:13;21.47;;;10.60;;
67049;SDS011;53955;52.442;13.284;2022-12-13T02:50:43;20.60;;;10.37;;
67049;SDS011;53955;52.442;13.284;2022-12-13T02:53:12;21.67;;;11.33;;
67049;SDS011;53955;52.442;13.284;2022-12-13T02:55:40;23.03;;;11.13;;
67049;SDS011;53955;52.442;13.284;2022-12-13T02:58:10;19.10;;;10.10;;
67049;SDS011;53955;52.442;13.284;2022-12-13T03:00:39;20.40;;;10.40;;
67049;SDS011;53955;52.442;13.284;2022-12-13T03:03:20;20.87;;;10.83;;
67049;SDS011;53955;52.442;13.284;2022-12-13T03:06:00;19.87;;;10.23;;
67049;SDS011;53955;52.442;13.284;2022-12-13T03:08:54;18.73;;;9.43;;
67049;SDS011;53955;52.442;13.284;2022-12-13T03:11:32;20.57;;;9.93;;
67049;SDS011;53955;52.442;13.284;2022-12-13T03:14:26;20.87;;;9.83;;
67049;SDS011;53955;52.442;13.284;2022-12-13T03:16:53;21.00;;;10.83;;
67049;SDS011;53955;52.442;13.284;2022-12-13T03:19:22;20.03;;;9.87;;
67049;SDS011;53955;52.442;13.284;2022-12-13T03:21:49;19.87;;;10.23;;
67049;SDS011;53955;52.442;13.284;2022-12-13T03:24:16;17.67;;;10.17;;
67049;SDS011;53955;52.442;13.284;2022-12-13T03:26:44;17.30;;;10.10;;
67049;SDS011;53955;52.442;13.284;2022-12-13T03:29:12;20.43;;;10.40;;
67049;SDS011;53955;52.442;13.284;2022-12-13T03:31:38;18.90;;;10.07;;
67049;SDS011;53955;52.442;13.284;2022-12-13T03:34:05;17.07;;;9.83;;
67049;SDS011;53955;52.442;13.284;2022-12-13T03:36:33;21.03;;;10.03;;
67049;SDS011;53955;52.442;13.284;2022-12-13T03:39:00;18.77;;;9.67;;
67049;SDS011;53955;52.442;13.284;2022-12-13T03:41:26;19.20;;;10.40;;
67049;SDS011;53955;52.442;13.284;2022-12-13T03:43:55;18.07;;;10.17;;
67049;SDS011;53955;52.442;13.284;2022-12-13T03:46:22;18.80;;;10.07;;
67049;SDS011;53955;52.442;13.284;2022-12-13T03:48:49;19.43;;;10.20;;
67049;SDS011;53955;52.442;13.284;2022-12-13T03:51:15;18.00;;;9.40;;
67049;SDS011;53955;52.442;13.284;2022-12-13T03:53:43;18.97;;;10.00;;
67049;SDS011;53955;52.442;13.284;2022-12-13T03:56:10;18.70;;;9.67;;
67049;SDS011;53955;52.442;13.284;2022-12-13T03:58:37;20.57;;;10.23;;
67049;SDS011;53955;52.442;13.284;2022-12-13T04:01:06;18.60;;;10.33;;
67049;SDS011;53955;52.442;13.284;2022-12-13T04:03:35;21.40;;;10.93;;
67049;SDS011;53955;52.442;13.284;2022-12-13T04:06:03;19.10;;;9.77;;
67049;SDS011;53955;52.442;13.284;2022-12-13T04:08:30;22.20;;;10.80;;
67049;SDS011;53955;52.442;13.284;2022-12-13T04:10:58;20.70;;;9.80;;
67049;SDS011;53955;52.442;13.284;2022-12-13T04:13:45;18.27;;;10.33;;
67049;SDS011;53955;52.442;13.284;2022-12-13T04:16:11;18.37;;;9.30;;
67049;SDS011;53955;52.442;13.284;2022-12-13T04:18:37;20.60;;;9.50;;
67049;SDS011;53955;52.442;13.284;2022-12-13T04:21:04;20.07;;;10.40;;
67049;SDS011;53955;52.442;13.284;2022-12-13T04:23:30;19.67;;;9.83;;
67049;SDS011;53955;52.442;13.284;2022-12-13T04:25:58;18.37;;;9.40;;
67049;SDS011;53955;52.442;13.284;2022-12-13T04:28:26;28.90;;;10.93;;
67049;SDS011;53955;52.442;13.284;2022-12-13T04:30:52;20.30;;;9.67;;
67049;SDS011;53955;52.442;13.284;2022-12-13T04:33:19;12.57;;;6.30;;
67049;SDS011;53955;52.442;13.284;2022-12-13T04:35:46;19.10;;;10.23;;
67049;SDS011;53955;52.442;13.284;2022-12-13T04:38:13;19.80;;;10.10;;
67049;SDS011;53955;52.442;13.284;2022-12-13T04:40:39;15.80;;;8.87;;
67049;SDS011;53955;52.442;13.284;2022-12-13T04:43:07;18.43;;;9.53;;
67049;SDS011;53955;52.442;13.284;2022-12-13T04:45:34;18.90;;;9.17;;
67049;SDS011;53955;52.442;13.284;2022-12-13T04:48:00;19.07;;;9.70;;
67049;SDS011;53955;52.442;13.284;2022-12-13T04:50:27;16.83;;;9.27;;
67049;SDS011;53955;52.442;13.284;2022-12-13T04:52:54;16.53;;;8.00;;
67049;SDS011;53955;52.442;13.284;2022-12-13T04:55:20;19.07;;;8.83;;
67049;SDS011;53955;52.442;13.284;2022-12-13T04:57:47;16.73;;;8.93;;
67049;SDS011;53955;52.442;13.284;2022-12-13T05:00:15;17.87;;;9.33;;
67049;SDS011;53955;52.442;13.284;2022-12-13T05:02:42;18.60;;;9.33;;
67049;SDS011;53955;52.442;13.284;2022-12-13T05:05:09;17.37;;;9.00;;
67049;SDS011;53955;52.442;13.284;2022-12-13T05:07:36;17.47;;;8.87;;
67049;SDS011;53955;52.442;13.284;2022-12-13T05:10:03;15.13;;;8.13;;
67049;SDS011;53955;52.442;13.284;2022-12-13T05:12:30;17.80;;;8.93;;
67049;SDS011;53955;52.442;13.284;2022-12-13T05:14:57;17.43;;;8.83;;
67049;SDS011;53955;52.442;13.284;2022-12-13T05:17:25;16.27;;;8.57;;
67049;SDS011;53955;52.442;13.284;2022-12-13T05:19:51;15.27;;;8.13;;
67049;SDS011;53955;52.442;13.284;2022-12-13T05:22:18;17.33;;;8.80;;
67049;SDS011;53955;52.442;13.284;2022-12-13T05:24:44;16.63;;;8.87;;
67049;SDS011;53955;52.442;13.284;2022-12-13T05:27:11;17.13;;;9.13;;
67049;SDS011;53955;52.442;13.284;2022-12-13T05:29:38;16.53;;;8.83;;
67049;SDS011;53955;52.442;13.284;2022-12-13T05:32:04;15.10;;;8.73;;
67049;SDS011;53955;52.442;13.284;2022-12-13T05:34:32;17.77;;;8.20;;
67049;SDS011;53955;52.442;13.284;2022-12-13T05:36:59;15.27;;;8.13;;
67049;SDS011;53955;52.442;13.284;2022-12-13T05:39:25;13.87;;;8.13;;
67049;SDS011;53955;52.442;13.284;2022-12-13T05:41:52;16.57;;;8.90;;
67049;SDS011;53955;52.442;13.284;2022-12-13T05:44:20;14.87;;;8.70;;
67049;SDS011;53955;52.442;13.284;2022-12-13T05:46:47;16.03;;;9.00;;
67049;SDS011;53955;52.442;13.284;2022-12-13T05:49:13;17.97;;;9.07;;
67049;SDS011;53955;52.442;13.284;2022-12-13T05:51:41;14.30;;;8.53;;
67049;SDS011;53955;52.442;13.284;2022-12-13T05:54:08;15.87;;;8.60;;
67049;SDS011;53955;52.442;13.284;2022-12-13T05:56:35;16.37;;;8.67;;
67049;SDS011;53955;52.442;13.284;2022-12-13T05:59:01;20.93;;;10.07;;
67049;SDS011;53955;52.442;13.284;2022-12-13T06:01:28;18.43;;;9.23;;
67049;SDS011;53955;52.442;13.284;2022-12-13T06:03:54;16.50;;;9.13;;
67049;SDS011;53955;52.442;13.284;2022-12-13T06:06:21;18.10;;;9.77;;
67049;SDS011;53955;52.442;13.284;2022-12-13T06:08:49;18.77;;;10.67;;
67049;SDS011;53955;52.442;13.284;2022-12-13T06:11:16;16.67;;;9.43;;
67049;SDS011;53955;52.442;13.284;2022-12-13T06:13:42;17.97;;;9.80;;
67049;SDS011;53955;52.442;13.284;2022-12-13T06:16:10;17.20;;;9.40;;
67049;SDS011;53955;52.442;13.284;2022-12-13T06:18:38;18.50;;;9.63;;
67049;SDS011;53955;52.442;13.284;2022-12-13T06:21:05;19.40;;;9.40;;
67049;SDS011;53955;52.442;13.284;2022-12-13T06:23:33;19.97;;;10.17;;
67049;SDS011;53955;52.442;13.284;2022-12-13T06:26:02;17.93;;;9.33;;
67049;SDS011;53955;52.442;13.284;2022-12-13T06:28:30;18.43;;;10.13;;
67049;SDS011;53955;52.442;13.284;2022-12-13T06:30:58;18.17;;;9.57;;
67049;SDS011;53955;52.442;13.284;2022-12-13T06:33:24;22.27;;;10.57;;
67049;SDS011;53955;52.442;13.284;2022-12-13T06:35:54;22.23;;;10.67;;
67049;SDS011;53955;52.442;13.284;2022-12-13T06:38:22;17.70;;;10.03;;
67049;SDS011;53955;52.442;13.284;2022-12-13T06:40:48;19.63;;;9.23;;
67049;SDS011;53955;52.442;13.284;2022-12-13T06:43:16;20.87;;;10.10;;
67049;SDS011;53955;52.442;13.284;2022-12-13T06:45:43;19.47;;;10.50;;
67049;SDS011;53955;52.442;13.284;2022-12-13T06:48:09;17.70;;;10.30;;
67049;SDS011;53955;52.442;13.284;2022-12-13T06:50:36;20.30;;;10.23;;
67049;SDS011;53955;52.442;13.284;2022-12-13T06:53:03;18.30;;;10.07;;
67049;SDS011;53955;52.442;13.284;2022-12-13T06:55:30;21.13;;;10.90;;
67049;SDS011;53955;52.442;13.284;2022-12-13T06:57:56;21.97;;;10.70;;
67049;SDS011;53955;52.442;13.284;2022-12-13T07:00:25;21.53;;;11.13;;
67049;SDS011;53955;52.442;13.284;2022-12-13T07:02:52;20.43;;;10.77;;
67049;SDS011;53955;52.442;13.284;2022-12-13T07:05:18;22.67;;;10.90;;
67049;SDS011;53955;52.442;13.284;2022-12-13T07:07:45;26.43;;;11.73;;
67049;SDS011;53955;52.442;13.284;2022-12-13T07:10:12;19.43;;;10.77;;
67049;SDS011;53955;52.442;13.284;2022-12-13T07:12:38;19.57;;;10.63;;
67049;SDS011;53955;52.442;13.284;2022-12-13T07:15:06;19.17;;;10.70;;
67049;SDS011;53955;52.442;13.284;2022-12-13T07:17:35;20.20;;;10.33;;
67049;SDS011;53955;52.442;13.284;2022-12-13T07:20:03;19.70;;;10.57;;
67049;SDS011;53955;52.442;13.284;2022-12-13T07:22:33;24.40;;;12.03;;
67049;SDS011;53955;52.442;13.284;2022-12-13T07:25:00;20.20;;;11.30;;
67049;SDS011;53955;52.442;13.284;2022-12-13T07:27:27;22.97;;;10.70;;
67049;SDS011;53955;52.442;13.284;2022-12-13T07:29:53;22.57;;;11.37;;
67049;SDS011;53955;52.442;13.284;2022-12-13T07:32:20;19.53;;;10.07;;
67049;SDS011;53955;52.442;13.284;2022-12-13T07:34:48;21.00;;;10.97;;
67049;SDS011;53955;52.442;13.284;2022-12-13T07:37:14;20.47;;;11.33;;
67049;SDS011;53955;52.442;13.284;2022-12-13T07:39:41;22.37;;;10.73;;
67049;SDS011;53955;52.442;13.284;2022-12-13T07:42:08;20.03;;;10.63;;
67049;SDS011;53955;52.442;13.284;2022-12-13T07:44:34;20.47;;;10.00;;
67049;SDS011;53955;52.442;13.284;2022-12-13T07:47:01;20.77;;;10.23;;
67049;SDS011;53955;52.442;13.284;2022-12-13T07:49:28;21.77;;;10.80;;
67049;SDS011;53955;52.442;13.284;2022-12-13T07:51:55;22.13;;;11.43;;
67049;SDS011;53955;52.442;13.284;2022-12-13T07:54:22;20.30;;;9.77;;
67049;SDS011;53955;52.442;13.284;2022-12-13T07:56:49;19.50;;;11.13;;
67049;SDS011;53955;52.442;13.284;2022-12-13T07:59:15;20.70;;;10.50;;
67049;SDS011;53955;52.442;13.284;2022-12-13T08:01:42;19.40;;;10.67;;
67049;SDS011;53955;52.442;13.284;2022-12-13T08:04:08;18.33;;;10.57;;
67049;SDS011;53955;52.442;13.284;2022-12-13T08:06:35;20.17;;;10.17;;
67049;SDS011;53955;52.442;13.284;2022-12-13T08:09:04;21.13;;;10.97;;
67049;SDS011;53955;52.442;13.284;2022-12-13T08:11:31;20.37;;;10.33;;
67049;SDS011;53955;52.442;13.284;2022-12-13T08:13:58;18.57;;;9.83;;
67049;SDS011;53955;52.442;13.284;2022-12-13T08:16:25;24.10;;;11.37;;
67049;SDS011;53955;52.442;13.284;2022-12-13T08:18:51;19.90;;;10.23;;
67049;SDS011;53955;52.442;13.284;2022-12-13T08:21:18;21.97;;;11.07;;
67049;SDS011;53955;52.442;13.284;2022-12-13T08:23:44;21.87;;;11.07;;
67049;SDS011;53955;52.442;13.284;2022-12-13T08:26:12;22.20;;;10.67;;
67049;SDS011;53955;52.442;13.284;2022-12-13T08:28:39;20.03;;;10.53;;
67049;SDS011;53955;52.442;13.284;2022-12-13T08:31:06;18.17;;;10.20;;
67049;SDS011;53955;52.442;13.284;2022-12-13T08:33:35;20.97;;;10.13;;
67049;SDS011;53955;52.442;13.284;2022-12-13T08:36:07;21.13;;;10.63;;
67049;SDS011;53955;52.442;13.284;2022-12-13T08:38:35;18.10;;;9.37;;
67049;SDS011;53955;52.442;13.284;2022-12-13T08:41:01;20.13;;;9.90;;
67049;SDS011;53955;52.442;13.284;2022-12-13T08:43:30;19.63;;;9.97;;
67049;SDS011;53955;52.442;13.284;2022-12-13T08:45:56;18.60;;;8.83;;
67049;SDS011;53955;52.442;13.284;2022-12-13T08:48:23;19.80;;;10.33;;
67049;SDS011;53955;52.442;13.284;2022-12-13T08:50:49;18.70;;;9.93;;
67049;SDS011;53955;52.442;13.284;2022-12-13T08:53:16;17.83;;;10.00;;
67049;SDS011;53955;52.442;13.284;2022-12-13T08:55:43;17.53;;;9.57;;
67049;SDS011;53955;52.442;13.284;2022-12-13T08:58:10;21.67;;;10.80;;
67049;SDS011;53955;52.442;13.284;2022-12-13T09:00:39;22.27;;;10.50;;
67049;SDS011;53955;52.442;13.284;2022-12-13T09:03:06;20.40;;;10.30;;
67049;SDS011;53955;52.442;13.284;2022-12-13T09:05:33;19.13;;;10.83;;
67049;SDS011;53955;52.442;13.284;2022-12-13T09:08:00;21.30;;;9.83;;
67049;SDS011;53955;52.442;13.284;2022-12-13T09:10:28;17.53;;;9.37;;
67049;SDS011;53955;52.442;13.284;2022-12-13T09:12:55;22.97;;;11.20;;
67049;SDS011;53955;52.442;13.284;2022-12-13T09:15:23;17.17;;;9.67;;
67049;SDS011;53955;52.442;13.284;2022-12-13T09:17:51;19.20;;;9.73;;
67049;SDS011;53955;52.442;13.284;2022-12-13T09:20:18;20.17;;;10.70;;
67049;SDS011;53955;52.442;13.284;2022-12-13T09:22:45;21.77;;;10.67;;
67049;SDS011;53955;52.442;13.284;2022-12-13T09:25:12;18.53;;;9.60;;
67049;SDS011;53955;52.442;13.284;2022-12-13T09:27:39;21.77;;;10.03;;
67049;SDS011;53955;52.442;13.284;2022-12-13T09:30:06;18.30;;;10.00;;
67049;SDS011;53955;52.442;13.284;2022-12-13T09:32:37;16.70;;;9.70;;
67049;SDS011;53955;52.442;13.284;2022-12-13T09:35:05;17.40;;;9.57;;
67049;SDS011;53955;52.442;13.284;2022-12-13T09:37:32;18.73;;;9.93;;
67049;SDS011;53955;52.442;13.284;2022-12-13T09:39:59;19.43;;;9.80;;
67049;SDS011;53955;52.442;13.284;2022-12-13T09:42:26;24.03;;;10.67;;
67049;SDS011;53955;52.442;13.284;2022-12-13T09:44:55;17.80;;;10.10;;
67049;SDS011;53955;52.442;13.284;2022-12-13T09:47:27;20.07;;;9.57;;
67049;SDS011;53955;52.442;13.284;2022-12-13T09:49:56;19.97;;;10.07;;
67049;SDS011;53955;52.442;13.284;2022-12-13T09:52:27;18.10;;;9.77;;
67049;SDS011;53955;52.442;13.284;2022-12-13T09:55:01;18.70;;;9.60;;
67049;SDS011;53955;52.442;13.284;2022-12-13T09:57:41;19.40;;;9.77;;
67049;SDS011;53955;52.442;13.284;2022-12-13T10:00:10;18.07;;;9.33;;
67049;SDS011;53955;52.442;13.284;2022-12-13T10:02:41;16.87;;;9.60;;
67049;SDS011;53955;52.442;13.284;2022-12-13T10:05:14;19.53;;;9.70;;
67049;SDS011;53955;52.442;13.284;2022-12-13T10:07:48;21.77;;;10.10;;
67049;SDS011;53955;52.442;13.284;2022-12-13T10:10:15;21.50;;;10.57;;
67049;SDS011;53955;52.442;13.284;2022-12-13T10:12:42;19.83;;;9.77;;
67049;SDS011;53955;52.442;13.284;2022-12-13T10:15:12;20.00;;;10.07;;
67049;SDS011;53955;52.442;13.284;2022-12-13T10:17:42;19.43;;;10.27;;
67049;SDS011;53955;52.442;13.284;2022-12-13T10:20:15;16.93;;;9.33;;
67049;SDS011;53955;52.442;13.284;2022-12-13T10:22:43;19.77;;;9.67;;
67049;SDS011;53955;52.442;13.284;2022-12-13T10:25:11;20.40;;;10.57;;
67049;SDS011;53955;52.442;13.284;2022-12-13T10:27:38;16.83;;;9.20;;
67049;SDS011;53955;52.442;13.284;2022-12-13T10:30:08;17.13;;;9.57;;
67049;SDS011;53955;52.442;13.284;2022-12-13T10:32:46;15.97;;;8.73;;
67049;SDS011;53955;52.442;13.284;2022-12-13T10:35:19;19.07;;;9.17;;
67049;SDS011;53955;52.442;13.284;2022-12-13T10:37:48;14.90;;;9.07;;
67049;SDS011;53955;52.442;13.284;2022-12-13T10:40:26;17.57;;;8.83;;
67049;SDS011;53955;52.442;13.284;2022-12-13T10:43:06;15.93;;;8.73;;
67049;SDS011;53955;52.442;13.284;2022-12-13T10:45:36;18.33;;;8.27;;
67049;SDS011;53955;52.442;13.284;2022-12-13T10:48:03;16.03;;;8.63;;
67049;SDS011;53955;52.442;13.284;2022-12-13T10:50:30;16.90;;;8.37;;
67049;SDS011;53955;52.442;13.284;2022-12-13T10:52:58;19.60;;;9.30;;
67049;SDS011;53955;52.442;13.284;2022-12-13T10:55:28;16.93;;;9.00;;
67049;SDS011;53955;52.442;13.284;2022-12-13T10:57:57;15.00;;;8.93;;
67049;SDS011;53955;52.442;13.284;2022-12-13T11:00:30;17.37;;;8.87;;
67049;SDS011;53955;52.442;13.284;2022-12-13T11:03:00;22.53;;;9.53;;
67049;SDS011;53955;52.442;13.284;2022-12-13T11:05:28;17.17;;;9.00;;
67049;SDS011;53955;52.442;13.284;2022-12-13T11:08:10;19.30;;;9.70;;
67049;SDS011;53955;52.442;13.284;2022-12-13T11:10:40;17.07;;;8.33;;
67049;SDS011;53955;52.442;13.284;2022-12-13T11:13:08;17.97;;;8.93;;
67049;SDS011;53955;52.442;13.284;2022-12-13T11:15:50;18.27;;;9.17;;
67049;SDS011;53955;52.442;13.284;2022-12-13T11:18:21;15.73;;;9.10;;
67049;SDS011;53955;52.442;13.284;2022-12-13T11:20:52;15.97;;;8.63;;
67049;SDS011;53955;52.442;13.284;2022-12-13T11:23:22;26.40;;;8.80;;
67049;SDS011;53955;52.442;13.284;2022-12-13T11:25:55;16.00;;;8.90;;
67049;SDS011;53955;52.442;13.284;2022-12-13T11:28:28;19.07;;;9.77;;
67049;SDS011;53955;52.442;13.284;2022-12-13T11:31:07;13.93;;;8.50;;
67049;SDS011;53955;52.442;13.284;2022-12-13T11:33:41;17.47;;;8.40;;
67049;SDS011;53955;52.442;13.284;2022-12-13T11:36:19;17.77;;;9.23;;
67049;SDS011;53955;52.442;13.284;2022-12-13T11:38:56;17.30;;;8.93;;
67049;SDS011;53955;52.442;13.284;2022-12-13T11:41:37;17.90;;;8.40;;
67049;SDS011;53955;52.442;13.284;2022-12-13T11:44:09;18.90;;;9.80;;
67049;SDS011;53955;52.442;13.284;2022-12-13T11:46:39;13.77;;;8.10;;
67049;SDS011;53955;52.442;13.284;2022-12-13T11:49:08;13.63;;;8.33;;
67049;SDS011;53955;52.442;13.284;2022-12-13T11:51:42;15.53;;;8.73;;
67049;SDS011;53955;52.442;13.284;2022-12-13T11:54:19;15.63;;;8.67;;
67049;SDS011;53955;52.442;13.284;2022-12-13T11:56:52;13.03;;;7.30;;
67049;SDS011;53955;52.442;13.284;2022-12-13T11:59:23;15.67;;;7.83;;
67049;SDS011;53955;52.442;13.284;2022-12-13T12:02:00;15.07;;;8.47;;
67049;SDS011;53955;52.442;13.284;2022-12-13T12:04:33;16.80;;;8.33;;
67049;SDS011;53955;52.442;13.284;2022-12-13T12:07:04;15.23;;;8.87;;
67049;SDS011;53955;52.442;13.284;2022-12-13T12:09:37;16.73;;;8.43;;
67049;SDS011;53955;52.442;13.284;2022-12-13T12:12:09;19.20;;;9.40;;
67049;SDS011;53955;52.442;13.284;2022-12-13T12:14:42;15.60;;;8.67;;
67049;SDS011;53955;52.442;13.284;2022-12-13T12:17:17;15.77;;;8.00;;
67049;SDS011;53955;52.442;13.284;2022-12-13T12:19:49;17.73;;;8.50;;
67049;SDS011;53955;52.442;13.284;2022-12-13T12:22:21;14.70;;;7.73;;
67049;SDS011;53955;52.442;13.284;2022-12-13T12:24:56;13.53;;;7.77;;
67049;SDS011;53955;52.442;13.284;2022-12-13T12:27:32;14.47;;;7.70;;
67049;SDS011;53955;52.442;13.284;2022-12-13T12:30:09;14.47;;;7.83;;
67049;SDS011;53955;52.442;13.284;2022-12-13T12:32:46;15.03;;;8.63;;
67049;SDS011;53955;52.442;13.284;2022-12-13T12:35:22;15.33;;;8.70;;
67049;SDS011;53955;52.442;13.284;2022-12-13T12:37:57;14.27;;;7.93;;
67049;SDS011;53955;52.442;13.284;2022-12-13T12:40:37;14.53;;;8.40;;
67049;SDS011;53955;52.442;13.284;2022-12-13T12:43:16;16.20;;;7.47;;
67049;SDS011;53955;52.442;13.284;2022-12-13T12:45:51;17.20;;;8.47;;
67049;SDS011;53955;52.442;13.284;2022-12-13T12:48:30;17.10;;;8.87;;
67049;SDS011;53955;52.442;13.284;2022-12-13T12:51:15;16.67;;;7.83;;
67049;SDS011;53955;52.442;13.284;2022-12-13T12:53:46;13.67;;;7.57;;
67049;SDS011;53955;52.442;13.284;2022-12-13T12:56:25;16.43;;;7.67;;
67049;SDS011;53955;52.442;13.284;2022-12-13T12:59:03;14.83;;;7.83;;
67049;SDS011;53955;52.442;13.284;2022-12-13T13:01:44;17.53;;;7.53;;
67049;SDS011;53955;52.442;13.284;2022-12-13T13:04:19;12.70;;;7.33;;
67049;SDS011;53955;52.442;13.284;2022-12-13T13:06:52;13.77;;;7.33;;
67049;SDS011;53955;52.442;13.284;2022-12-13T13:09:24;14.63;;;8.07;;
67049;SDS011;53955;52.442;13.284;2022-12-13T13:11:51;13.57;;;7.67;;
67049;SDS011;53955;52.442;13.284;2022-12-13T13:14:27;15.97;;;7.03;;
67049;SDS011;53955;52.442;13.284;2022-12-13T13:16:56;14.93;;;8.00;;
67049;SDS011;53955;52.442;13.284;2022-12-13T13:19:42;11.77;;;6.83;;
67049;SDS011;53955;52.442;13.284;2022-12-13T13:22:29;11.77;;;7.23;;
67049;SDS011;53955;52.442;13.284;2022-12-13T13:27:49;14.33;;;7.33;;
67049;SDS011;53955;52.442;13.284;2022-12-13T13:30:19;13.93;;;7.30;;
67049;SDS011;53955;52.442;13.284;2022-12-13T13:32:47;14.23;;;7.83;;
67049;SDS011;53955;52.442;13.284;2022-12-13T13:38:27;12.97;;;7.73;;
67049;SDS011;53955;52.442;13.284;2022-12-13T13:47:29;13.47;;;7.27;;
67049;SDS011;53955;52.442;13.284;2022-12-13T13:50:01;14.77;;;7.40;;
67049;SDS011;53955;52.442;13.284;2022-12-13T13:52:36;13.90;;;7.27;;
67049;SDS011;53955;52.442;13.284;2022-12-13T13:58:16;23.07;;;10.57;;
67049;SDS011;53955;52.442;13.284;2022-12-13T14:01:03;21.50;;;11.13;;
67049;SDS011;53955;52.442;13.284;2022-12-13T14:10:35;19.33;;;9.37;;
67049;SDS011;53955;52.442;13.284;2022-12-13T14:19:53;21.80;;;8.77;;
67049;SDS011;53955;52.442;13.284;2022-12-13T14:22:52;18.30;;;9.63;;
67049;SDS011;53955;52.442;13.284;2022-12-13T14:25:40;17.37;;;9.30;;
67049;SDS011;53955;52.442;13.284;2022-12-13T14:28:15;14.73;;;8.40;;
67049;SDS011;53955;52.442;13.284;2022-12-13T14:30:56;18.10;;;8.77;;
67049;SDS011;53955;52.442;13.284;2022-12-13T14:33:23;15.20;;;8.67;;
67049;SDS011;53955;52.442;13.284;2022-12-13T14:35:52;20.43;;;9.33;;
67049;SDS011;53955;52.442;13.284;2022-12-13T14:38:20;15.77;;;8.60;;
67049;SDS011;53955;52.442;13.284;2022-12-13T14:40:49;19.73;;;8.27;;
67049;SDS011;53955;52.442;13.284;2022-12-13T14:43:21;19.13;;;10.07;;
67049;SDS011;53955;52.442;13.284;2022-12-13T14:45:51;18.17;;;9.97;;
67049;SDS011;53955;52.442;13.284;2022-12-13T14:48:20;16.03;;;9.07;;
67049;SDS011;53955;52.442;13.284;2022-12-13T14:50:46;17.13;;;9.97;;
67049;SDS011;53955;52.442;13.284;2022-12-13T14:53:18;19.53;;;9.10;;
67049;SDS011;53955;52.442;13.284;2022-12-13T14:56:02;31.53;;;14.80;;
67049;SDS011;53955;52.442;13.284;2022-12-13T14:58:31;28.90;;;14.77;;
67049;SDS011;53955;52.442;13.284;2022-12-13T15:00:58;31.07;;;14.30;;
67049;SDS011;53955;52.442;13.284;2022-12-13T15:03:25;21.13;;;10.40;;
67049;SDS011;53955;52.442;13.284;2022-12-13T15:05:53;21.63;;;10.50;;